createdAt,value
2019-02-14T00:00:35.787Z,8.20
2019-02-14T00:04:41.503Z,8.30
2019-02-14T00:09:16.815Z,8.20
2019-02-14T00:13:22.553Z,8.00
2019-02-14T00:17:28.258Z,7.90
2019-02-14T00:21:33.978Z,7.70
2019-02-14T00:26:18.822Z,7.90
2019-02-14T00:30:24.529Z,7.80
2019-02-14T00:34:32.082Z,8.00
2019-02-14T00:38:37.839Z,7.90
2019-02-14T00:42:43.544Z,7.70
2019-02-14T00:46:49.264Z,7.60
2019-02-14T00:50:55.030Z,7.50
2019-02-14T00:55:00.733Z,7.30
2019-02-14T00:59:06.439Z,7.30
2019-02-14T01:03:12.146Z,7.40
2019-02-14T01:07:17.811Z,7.50
2019-02-14T01:11:23.500Z,7.40
2019-02-14T01:15:29.531Z,7.20
2019-02-14T01:19:38.117Z,7.40
2019-02-14T01:23:42.604Z,7.70
2019-02-14T01:27:48.389Z,7.40
2019-02-14T01:31:54.144Z,7.40
2019-02-14T01:35:59.843Z,7.60
2019-02-14T01:40:17.354Z,7.70
2019-02-14T01:44:40.906Z,7.70
2019-02-14T01:50:16.358Z,7.40
2019-02-14T02:05:14.669Z,7.30
2019-02-14T02:09:20.348Z,7.00
2019-02-14T02:18:20.119Z,6.50
2019-02-14T02:23:16.666Z,6.30
2019-02-14T02:27:22.457Z,6.10
2019-02-14T02:32:16.219Z,6.30
2019-02-14T02:36:23.521Z,6.50
2019-02-14T02:40:29.358Z,6.70
2019-02-14T02:44:35.038Z,7.00
2019-02-14T02:49:16.648Z,6.80
2019-02-14T02:53:24.013Z,6.40
2019-02-14T03:02:19.738Z,6.50
2019-02-14T03:06:25.437Z,6.40
2019-02-14T03:10:31.291Z,5.90
2019-02-14T03:14:36.977Z,6.00
2019-02-14T03:19:15.303Z,6.10
2019-02-14T03:28:16.937Z,6.80
2019-02-14T03:32:22.617Z,6.70
2019-02-14T03:36:28.327Z,6.50
2019-02-14T03:40:34.087Z,6.50
2019-02-14T03:44:39.764Z,6.10
2019-02-14T03:48:45.436Z,5.70
2019-02-14T03:52:51.208Z,5.60
2019-02-14T03:56:56.899Z,5.80
2019-02-14T04:01:14.417Z,6.00
2019-02-14T04:05:20.137Z,6.30
2019-02-14T04:09:25.796Z,6.70
2019-02-14T04:13:31.635Z,6.60
2019-02-14T04:17:37.327Z,6.80
2019-02-14T04:21:43.008Z,6.60
2019-02-14T04:26:18.055Z,6.60
2019-02-14T04:30:23.726Z,6.50
2019-02-14T04:34:29.589Z,6.50
2019-02-14T04:38:35.288Z,6.20
2019-02-14T04:42:41.129Z,5.80
2019-02-14T04:46:48.050Z,5.70
2019-02-14T04:50:53.812Z,6.00
2019-02-14T04:55:16.925Z,6.00
2019-02-14T04:59:22.613Z,6.00
2019-02-14T05:04:16.261Z,6.40
2019-02-14T05:08:21.945Z,6.60
2019-02-14T05:12:27.694Z,6.60
2019-02-14T05:16:33.397Z,6.70
2019-02-14T05:20:39.091Z,6.50
2019-02-14T05:24:44.780Z,6.00
2019-02-14T05:28:50.503Z,5.80
2019-02-14T05:32:56.222Z,5.80
2019-02-14T05:37:17.222Z,5.90
2019-02-14T05:41:22.909Z,6.10
2019-02-14T05:45:28.649Z,6.60
2019-02-14T05:49:34.318Z,6.70
2019-02-14T06:00:19.143Z,6.40
2019-02-14T06:19:18.339Z,6.90
2019-02-14T06:40:14.416Z,6.20
2019-02-14T06:51:15.315Z,5.60
2019-02-14T07:01:19.710Z,5.90
2019-02-14T07:06:16.122Z,6.50
2019-02-14T07:11:15.878Z,6.80
2019-02-14T07:21:17.293Z,6.70
2019-02-14T07:26:16.938Z,7.00
2019-02-14T07:30:40.171Z,7.00
2019-02-14T08:01:15.133Z,8.40
2019-02-14T08:05:20.830Z,8.40
2019-02-14T08:36:14.539Z,9.30
2019-02-14T08:45:21.304Z,9.60
2019-02-14T08:50:17.433Z,9.70
2019-02-14T08:55:17.140Z,9.50
2019-02-14T09:11:16.112Z,10.30
2019-02-14T09:30:21.420Z,14.80
2019-02-14T09:50:15.310Z,15.10
2019-02-14T09:59:20.189Z,17.30
2019-02-14T10:03:25.899Z,18.20
2019-02-14T10:07:31.590Z,16.70
2019-02-14T10:44:14.830Z,18.20
2019-02-14T10:55:15.929Z,16.60
2019-02-14T11:05:08.908Z,17.80
2019-02-14T11:09:14.602Z,18.50
2019-02-14T11:13:20.484Z,17.70
2019-02-14T11:17:26.794Z,16.90
2019-02-14T11:21:32.507Z,17.10
2019-02-14T11:25:40.028Z,17.90
2019-02-14T11:29:45.750Z,20.30
2019-02-14T11:33:51.542Z,25.30
2019-02-14T11:37:58.304Z,30.30
2019-02-14T11:42:04.282Z,31.60
2019-02-14T11:46:10.073Z,29.00
2019-02-14T11:50:15.831Z,27.80
2019-02-14T11:54:21.497Z,27.30
2019-02-14T11:58:27.212Z,28.10
2019-02-14T12:02:32.986Z,27.00
2019-02-14T12:06:38.733Z,27.30
2019-02-14T12:10:44.491Z,27.00
2019-02-14T12:14:51.490Z,25.80
2019-02-14T12:18:57.182Z,24.10
2019-02-14T12:23:02.906Z,22.50
2019-02-14T12:27:08.776Z,21.90
2019-02-14T12:31:14.569Z,21.90
2019-02-14T12:35:20.328Z,23.80
2019-02-14T12:39:26.035Z,24.30
2019-02-14T12:43:33.374Z,24.20
2019-02-14T12:47:39.077Z,22.10
2019-02-14T12:51:46.420Z,22.40
2019-02-14T12:55:52.119Z,22.20
2019-02-14T12:59:57.811Z,22.30
2019-02-14T13:04:03.557Z,23.70
2019-02-14T13:08:09.267Z,21.50
2019-02-14T13:12:15.163Z,21.70
2019-02-14T13:16:20.876Z,21.50
2019-02-14T13:20:26.654Z,22.00
2019-02-14T13:24:32.344Z,22.40
2019-02-14T13:28:38.054Z,23.00
2019-02-14T13:32:43.790Z,23.60
2019-02-14T13:36:49.495Z,25.30
2019-02-14T13:40:56.836Z,27.80
2019-02-14T13:45:02.533Z,23.10
2019-02-14T13:49:08.313Z,20.50
2019-02-14T13:53:14.069Z,19.30
2019-02-14T13:57:19.785Z,18.50
2019-02-14T14:01:25.517Z,18.10
2019-02-14T14:05:31.259Z,17.70
2019-02-14T14:09:38.987Z,17.30
2019-02-14T14:13:44.337Z,17.10
2019-02-14T14:17:50.056Z,17.00
2019-02-14T14:21:55.745Z,16.80
2019-02-14T14:26:01.448Z,16.50
2019-02-14T14:31:16.594Z,16.30
2019-02-14T14:35:22.331Z,16.10
2019-02-14T14:40:17.024Z,15.90
2019-02-14T14:44:26.863Z,15.70
2019-02-14T14:49:17.513Z,15.60
2019-02-14T14:53:23.231Z,15.40
2019-02-14T14:58:16.897Z,15.30
2019-02-14T15:02:22.603Z,15.10
2019-02-14T15:07:16.201Z,14.80
2019-02-14T15:11:21.918Z,14.90
2019-02-14T15:15:27.618Z,15.00
2019-02-14T15:19:34.951Z,14.90
2019-02-14T15:23:40.670Z,14.80
2019-02-14T15:27:46.363Z,14.70
2019-02-14T15:31:52.078Z,14.50
2019-02-14T15:35:57.769Z,14.50
2019-02-14T15:40:09.236Z,14.40
2019-02-14T15:44:18.295Z,14.30
2019-02-14T15:48:24.000Z,14.30
2019-02-14T15:52:32.133Z,14.20
2019-02-14T15:56:37.165Z,14.10
2019-02-14T16:00:43.028Z,14.10
2019-02-14T16:04:50.830Z,13.90
2019-02-14T16:08:57.184Z,13.70
2019-02-14T16:13:17.710Z,13.40
2019-02-14T16:17:23.484Z,13.20
2019-02-14T16:21:31.525Z,13.00
2019-02-14T16:25:37.312Z,12.80
2019-02-14T16:29:43.013Z,12.60
2019-02-14T16:33:48.744Z,12.40
2019-02-14T16:37:54.421Z,12.30
2019-02-14T16:42:00.131Z,12.10
2019-02-14T16:46:05.826Z,11.90
2019-02-14T16:50:11.772Z,11.90
2019-02-14T16:54:17.455Z,11.80
2019-02-14T16:58:23.225Z,11.80
2019-02-14T17:02:29.034Z,11.60
2019-02-14T17:06:34.719Z,11.50
2019-02-14T17:10:40.507Z,11.50
2019-02-14T17:14:46.192Z,11.40
2019-02-14T17:18:51.887Z,11.40
2019-02-14T17:22:57.595Z,11.40
2019-02-14T17:27:03.386Z,11.20
2019-02-14T17:31:09.092Z,11.10
2019-02-14T17:35:14.935Z,11.20
2019-02-14T17:39:20.632Z,11.40
2019-02-14T17:43:26.391Z,11.20
2019-02-14T17:47:33.120Z,11.00
2019-02-14T17:51:38.796Z,10.90
2019-02-14T17:55:44.547Z,10.90
2019-02-14T17:59:50.305Z,10.90
2019-02-14T18:03:56.014Z,10.90
2019-02-14T18:08:01.724Z,10.80
2019-02-14T18:16:52.575Z,10.90
2019-02-14T18:20:58.313Z,11.00
2019-02-14T18:25:11.611Z,10.70
2019-02-14T18:29:17.372Z,10.50
2019-02-14T18:33:23.087Z,10.50
2019-02-14T18:37:28.855Z,10.40
2019-02-14T18:41:37.474Z,10.40
2019-02-14T18:45:41.969Z,10.50
2019-02-14T18:49:47.675Z,10.40
2019-02-14T18:53:53.555Z,10.30
2019-02-14T18:57:59.355Z,10.50
2019-02-14T19:02:05.055Z,10.30
2019-02-14T19:06:11.272Z,10.30
2019-02-14T19:10:18.145Z,10.30
2019-02-14T19:14:23.902Z,10.20
2019-02-14T19:18:31.116Z,10.20
2019-02-14T19:22:36.831Z,10.40
2019-02-14T19:26:44.324Z,10.40
2019-02-14T19:30:50.056Z,10.30
2019-02-14T19:34:55.742Z,10.20
2019-02-14T19:39:01.553Z,10.10
2019-02-14T19:43:07.249Z,9.80
2019-02-14T19:47:12.946Z,9.80
2019-02-14T19:51:21.758Z,10.00
2019-02-14T19:55:26.091Z,10.10
2019-02-14T19:59:31.802Z,10.20
2019-02-14T20:03:37.546Z,10.30
2019-02-14T20:07:43.252Z,10.10
2019-02-14T20:11:48.934Z,10.00
2019-02-14T20:15:54.735Z,9.90
2019-02-14T20:20:00.419Z,9.80
2019-02-14T20:24:06.313Z,9.70
2019-02-14T20:28:12.004Z,9.80
2019-02-14T20:32:17.744Z,10.00
2019-02-14T20:36:23.459Z,9.90
2019-02-14T20:40:29.267Z,10.00
2019-02-14T20:44:34.971Z,10.10
2019-02-14T20:48:40.655Z,10.10
2019-02-14T20:52:47.994Z,10.20
2019-02-14T20:56:53.715Z,10.20
2019-02-14T21:00:59.802Z,10.20
2019-02-14T21:05:06.802Z,10.20
2019-02-14T21:09:12.552Z,10.20
2019-02-14T21:13:18.493Z,9.90
2019-02-14T21:17:25.149Z,9.50
2019-02-14T21:21:30.916Z,9.50
2019-02-14T21:25:36.705Z,9.70
2019-02-14T21:29:44.180Z,9.70
2019-02-14T21:33:49.914Z,9.50
2019-02-14T21:37:55.999Z,9.60
2019-02-14T21:42:18.482Z,9.70
2019-02-14T21:46:09.122Z,9.80
2019-02-14T21:50:16.287Z,9.60
2019-02-14T21:54:22.067Z,9.60
2019-02-14T21:58:27.754Z,9.60
2019-02-14T22:06:53.050Z,9.40
2019-02-14T22:10:59.889Z,9.80
2019-02-14T22:15:21.037Z,9.50
2019-02-14T22:19:29.767Z,9.10
2019-02-14T22:23:35.487Z,9.20
2019-02-14T22:27:41.530Z,8.90
2019-02-14T22:31:47.240Z,8.70
2019-02-14T22:35:52.994Z,8.60
2019-02-14T22:39:59.677Z,8.70
2019-02-14T22:44:05.470Z,8.40
2019-02-14T22:48:11.162Z,8.20
2019-02-14T22:52:16.859Z,8.10
2019-02-14T22:56:22.623Z,8.10
2019-02-14T23:00:45.740Z,8.60
2019-02-14T23:04:51.501Z,8.70
2019-02-14T23:08:57.178Z,8.60
2019-02-14T23:13:02.855Z,8.90
2019-02-14T23:17:08.554Z,8.90
2019-02-14T23:21:14.242Z,8.70
2019-02-14T23:25:19.920Z,8.50
2019-02-14T23:29:25.653Z,8.20
2019-02-14T23:33:31.293Z,8.20
2019-02-14T23:37:36.983Z,8.20
2019-02-14T23:41:42.710Z,8.30
2019-02-14T23:45:48.503Z,8.20
2019-02-14T23:49:54.205Z,8.20
2019-02-14T23:53:59.902Z,8.40
2019-02-14T23:58:05.594Z,8.30
